createdAt,value
2023-03-26T00:00:37.857Z,21.90
2023-03-26T00:02:39.678Z,21.90
2023-03-26T00:04:41.494Z,21.90
2023-03-26T00:06:43.226Z,21.90
2023-03-26T00:08:45.469Z,21.90
2023-03-26T00:10:47.164Z,21.90
2023-03-26T00:12:48.946Z,21.90
2023-03-26T00:14:50.849Z,21.90
2023-03-26T00:16:52.646Z,21.80
2023-03-26T00:18:54.714Z,21.90
2023-03-26T00:20:57.292Z,21.80
2023-03-26T00:22:59.110Z,21.80
2023-03-26T00:25:00.865Z,21.80
2023-03-26T00:27:02.653Z,21.80
2023-03-26T00:29:04.930Z,21.80
2023-03-26T00:31:07.567Z,21.80
2023-03-26T00:33:09.477Z,21.80
2023-03-26T00:35:11.265Z,21.80
2023-03-26T00:37:13.096Z,21.80
2023-03-26T00:39:14.912Z,21.80
2023-03-26T00:41:17.706Z,21.80
2023-03-26T00:43:20.985Z,21.80
2023-03-26T00:45:22.960Z,21.80
2023-03-26T00:47:25.013Z,21.80
2023-03-26T00:49:26.940Z,21.80
2023-03-26T00:51:29.205Z,21.80
2023-03-26T00:53:31.036Z,21.80
2023-03-26T00:55:32.828Z,21.80
2023-03-26T00:57:36.283Z,21.80
2023-03-26T00:59:38.301Z,21.80
2023-03-26T01:01:40.405Z,21.90
2023-03-26T01:06:22.538Z,21.80
2023-03-26T01:08:24.321Z,21.80
2023-03-26T01:10:26.115Z,21.80
2023-03-26T01:12:29.686Z,21.80
2023-03-26T01:14:31.806Z,21.80
2023-03-26T01:16:39.644Z,21.80
2023-03-26T01:18:41.380Z,21.80
2023-03-26T01:20:44.174Z,21.80
2023-03-26T01:22:48.312Z,21.80
2023-03-26T01:24:50.717Z,21.80
2023-03-26T01:27:04.682Z,21.80
2023-03-26T01:29:08.281Z,21.80
2023-03-26T01:31:13.133Z,21.80
2023-03-26T01:33:14.935Z,21.80
2023-03-26T01:35:16.822Z,21.80
2023-03-26T01:37:36.765Z,21.70
2023-03-26T01:39:58.781Z,21.70
2023-03-26T01:42:04.142Z,21.70
2023-03-26T01:44:20.266Z,21.70
2023-03-26T01:46:23.607Z,21.70
2023-03-26T01:48:33.537Z,21.70
2023-03-26T01:50:35.345Z,21.70
2023-03-26T01:52:37.504Z,21.70
2023-03-26T01:54:39.258Z,21.70
2023-03-26T01:56:58.483Z,21.70
2023-03-26T01:59:02.923Z,21.70
2023-03-26T02:01:04.718Z,21.70
2023-03-26T02:03:18.241Z,21.70
2023-03-26T02:05:20.292Z,21.70
2023-03-26T02:07:27.122Z,21.70
2023-03-26T02:09:30.892Z,21.70
2023-03-26T02:11:35.931Z,21.70
2023-03-26T02:13:39.186Z,21.70
2023-03-26T02:15:41.088Z,21.70
2023-03-26T02:17:42.938Z,21.70
2023-03-26T02:19:44.708Z,21.70
2023-03-26T02:21:46.840Z,21.70
2023-03-26T02:23:50.221Z,21.70
2023-03-26T02:25:52.855Z,21.70
2023-03-26T02:27:54.996Z,21.70
2023-03-26T02:29:56.754Z,21.70
2023-03-26T02:31:58.870Z,21.70
2023-03-26T02:34:00.757Z,21.70
2023-03-26T02:36:04.993Z,21.70
2023-03-26T02:38:07.097Z,21.70
2023-03-26T02:40:09.169Z,21.70
2023-03-26T02:42:11.030Z,21.70
2023-03-26T02:44:20.267Z,21.70
2023-03-26T02:46:45.397Z,21.70
2023-03-26T02:49:05.820Z,21.70
2023-03-26T02:51:07.777Z,21.70
2023-03-26T02:53:18.042Z,21.70
2023-03-26T02:55:24.658Z,21.70
2023-03-26T02:57:28.887Z,21.70
2023-03-26T02:59:43.249Z,21.70
2023-03-26T03:02:04.958Z,21.70
2023-03-26T03:04:08.122Z,21.70
2023-03-26T03:06:10.827Z,21.70
2023-03-26T03:08:20.281Z,21.70
2023-03-26T03:10:37.153Z,21.70
2023-03-26T03:12:59.398Z,21.70
2023-03-26T03:15:01.298Z,21.70
2023-03-26T03:17:03.302Z,21.70
2023-03-26T03:19:05.105Z,21.70
2023-03-26T03:21:13.654Z,21.70
2023-03-26T03:23:15.721Z,21.70
2023-03-26T03:25:17.591Z,21.70
2023-03-26T03:27:21.064Z,21.70
2023-03-26T03:29:30.001Z,21.70
2023-03-26T03:31:36.394Z,21.70
2023-03-26T03:33:43.321Z,21.70
2023-03-26T03:35:46.501Z,21.70
2023-03-26T03:37:48.480Z,21.70
2023-03-26T03:39:50.329Z,21.70
2023-03-26T03:41:54.921Z,21.70
2023-03-26T03:43:56.813Z,21.70
2023-03-26T03:46:03.729Z,21.70
2023-03-26T03:48:12.393Z,21.70
2023-03-26T03:50:17.970Z,21.70
2023-03-26T03:52:42.958Z,21.70
2023-03-26T03:54:45.452Z,21.70
2023-03-26T03:57:10.637Z,21.70
2023-03-26T03:59:23.467Z,21.70
2023-03-26T04:01:25.539Z,21.70
2023-03-26T04:03:35.373Z,21.70
2023-03-26T04:05:41.180Z,21.70
2023-03-26T04:07:43.327Z,21.70
2023-03-26T04:10:06.030Z,21.70
2023-03-26T04:12:43.295Z,21.70
2023-03-26T04:14:50.415Z,21.70
2023-03-26T04:16:54.278Z,21.70
2023-03-26T04:18:57.013Z,21.70
2023-03-26T04:20:58.832Z,21.70
2023-03-26T04:23:02.181Z,21.70
2023-03-26T04:25:04.181Z,21.70
2023-03-26T04:27:38.580Z,21.70
2023-03-26T04:30:11.950Z,21.70
2023-03-26T04:32:32.081Z,21.70
2023-03-26T04:34:34.291Z,21.70
2023-03-26T04:36:47.336Z,21.70
2023-03-26T04:38:50.905Z,21.70
2023-03-26T04:40:57.329Z,21.70
2023-03-26T04:43:22.157Z,21.70
2023-03-26T04:45:38.816Z,21.70
2023-03-26T04:47:40.769Z,21.70
2023-03-26T04:49:43.027Z,21.70
2023-03-26T04:51:45.779Z,21.70
2023-03-26T04:54:10.985Z,21.70
2023-03-26T04:56:23.721Z,21.70
2023-03-26T04:58:51.721Z,21.70
2023-03-26T05:00:53.612Z,21.70
2023-03-26T05:02:55.649Z,21.70
2023-03-26T05:04:57.496Z,21.70
2023-03-26T05:07:03.369Z,21.70
2023-03-26T05:09:15.368Z,21.70
2023-03-26T05:11:52.537Z,21.70
2023-03-26T05:13:54.608Z,21.70
2023-03-26T05:15:56.552Z,21.70
2023-03-26T05:18:13.997Z,21.70
2023-03-26T05:20:22.350Z,21.70
2023-03-26T05:22:24.263Z,21.70
2023-03-26T05:24:50.717Z,21.70
2023-03-26T05:26:52.591Z,21.70
2023-03-26T05:28:57.859Z,21.70
2023-03-26T05:31:08.226Z,21.70
2023-03-26T05:33:13.501Z,21.70
2023-03-26T05:35:22.508Z,21.70
2023-03-26T05:37:24.438Z,21.70
2023-03-26T05:39:35.185Z,21.70
2023-03-26T05:42:06.284Z,21.60
2023-03-26T05:44:19.977Z,21.70
2023-03-26T05:46:21.982Z,21.70
2023-03-26T05:48:24.977Z,21.70
2023-03-26T05:50:27.124Z,21.60
2023-03-26T05:52:34.341Z,21.70
2023-03-26T05:54:54.765Z,21.60
2023-03-26T05:57:15.097Z,21.60
2023-03-26T05:59:35.514Z,21.60
2023-03-26T06:01:55.984Z,21.70
2023-03-26T06:04:18.166Z,21.60
2023-03-26T06:06:35.819Z,21.60
2023-03-26T06:08:37.649Z,21.60
2023-03-26T06:10:40.044Z,21.60
2023-03-26T06:12:42.518Z,21.60
2023-03-26T06:14:44.632Z,21.60
2023-03-26T06:16:51.846Z,21.60
2023-03-26T06:18:56.849Z,21.60
2023-03-26T06:21:13.426Z,21.60
2023-03-26T06:23:25.627Z,21.60
2023-03-26T06:25:40.441Z,21.60
2023-03-26T06:28:00.176Z,21.60
2023-03-26T06:30:21.477Z,21.60
2023-03-26T06:32:56.154Z,21.60
2023-03-26T06:35:01.949Z,21.60
2023-03-26T06:37:03.806Z,21.60
2023-03-26T06:39:07.562Z,21.60
2023-03-26T06:41:11.489Z,21.60
2023-03-26T06:43:36.812Z,21.60
2023-03-26T06:45:51.488Z,21.60
2023-03-26T06:48:19.594Z,21.60
2023-03-26T06:50:59.553Z,21.60
2023-03-26T06:53:21.610Z,21.60
2023-03-26T06:55:43.545Z,21.60
2023-03-26T06:58:10.964Z,21.60
2023-03-26T07:00:32.432Z,21.60
2023-03-26T07:02:52.877Z,21.60
2023-03-26T07:05:13.969Z,21.60
2023-03-26T07:07:54.067Z,21.60
2023-03-26T07:10:14.535Z,21.60
2023-03-26T07:12:45.536Z,21.60
2023-03-26T07:15:06.539Z,21.60
2023-03-26T07:17:31.168Z,21.60
2023-03-26T07:19:40.488Z,21.60
2023-03-26T07:21:42.498Z,21.60
2023-03-26T07:23:58.360Z,21.60
2023-03-26T07:26:41.787Z,21.60
2023-03-26T07:29:04.770Z,21.60
2023-03-26T07:31:16.211Z,21.60
2023-03-26T07:33:58.642Z,21.70
2023-03-26T07:36:32.604Z,21.60
2023-03-26T07:39:06.075Z,21.60
2023-03-26T07:41:37.490Z,21.60
2023-03-26T07:44:01.018Z,21.60
2023-03-26T07:46:38.575Z,21.60
2023-03-26T07:48:58.704Z,21.60
2023-03-26T07:51:29.949Z,21.60
2023-03-26T07:53:46.074Z,21.60
2023-03-26T07:56:13.312Z,21.60
2023-03-26T07:58:39.676Z,21.70
2023-03-26T08:01:06.203Z,21.70
2023-03-26T08:03:37.701Z,21.60
2023-03-26T08:06:17.500Z,21.70
2023-03-26T08:08:42.453Z,21.60
2023-03-26T08:11:14.905Z,21.60
2023-03-26T08:13:36.828Z,21.60
2023-03-26T08:15:49.136Z,21.60
2023-03-26T08:18:03.070Z,21.60
2023-03-26T08:20:04.889Z,21.60
2023-03-26T08:22:12.058Z,21.60
2023-03-26T08:24:20.256Z,21.60
2023-03-26T08:26:28.467Z,21.60
2023-03-26T08:28:48.753Z,21.60
2023-03-26T08:30:50.715Z,21.60
2023-03-26T08:32:56.790Z,21.60
2023-03-26T08:34:58.703Z,21.60
2023-03-26T08:37:00.540Z,21.60
2023-03-26T08:39:02.844Z,21.60
2023-03-26T08:41:10.855Z,21.60
2023-03-26T08:43:26.290Z,21.60
2023-03-26T08:45:28.039Z,21.60
2023-03-26T08:47:44.953Z,21.60
2023-03-26T08:49:58.980Z,21.60
2023-03-26T08:52:00.809Z,21.60
2023-03-26T08:54:02.813Z,21.60
2023-03-26T08:56:06.493Z,21.60
2023-03-26T08:58:23.825Z,21.60
2023-03-26T09:00:35.826Z,21.60
2023-03-26T09:03:05.147Z,21.60
2023-03-26T09:05:07.008Z,21.60
2023-03-26T09:07:29.087Z,21.60
2023-03-26T09:09:49.344Z,21.60
2023-03-26T09:11:59.032Z,21.60
2023-03-26T09:14:00.864Z,21.60
2023-03-26T09:16:05.618Z,21.60
2023-03-26T09:18:07.433Z,21.60
2023-03-26T09:20:27.830Z,21.60
2023-03-26T09:22:48.156Z,21.60
2023-03-26T09:25:00.028Z,21.60
2023-03-26T09:27:07.619Z,21.60
2023-03-26T09:29:12.451Z,21.60
2023-03-26T09:31:20.353Z,21.60
2023-03-26T09:33:32.726Z,21.60
2023-03-26T09:35:53.387Z,21.60
2023-03-26T09:38:09.509Z,21.60
2023-03-26T09:40:21.768Z,21.60
2023-03-26T09:42:35.760Z,21.60
2023-03-26T09:44:49.605Z,21.60
2023-03-26T09:46:57.418Z,21.60
2023-03-26T09:49:08.409Z,21.60
2023-03-26T09:51:19.500Z,21.60
2023-03-26T09:53:24.352Z,21.60
2023-03-26T09:55:32.262Z,21.60
2023-03-26T09:57:37.119Z,21.60
2023-03-26T09:59:48.061Z,21.60
2023-03-26T10:02:10.091Z,21.60
2023-03-26T10:04:34.937Z,21.60
2023-03-26T10:06:41.740Z,21.60
2023-03-26T10:08:55.756Z,21.60
2023-03-26T10:11:02.212Z,21.60
2023-03-26T10:13:14.639Z,21.60
2023-03-26T10:15:24.649Z,21.60
2023-03-26T10:17:30.114Z,21.60
2023-03-26T10:19:41.273Z,21.60
2023-03-26T10:21:43.126Z,21.60
2023-03-26T10:23:44.866Z,21.60
2023-03-26T10:25:55.981Z,21.60
2023-03-26T10:27:57.738Z,21.60
2023-03-26T10:30:18.171Z,21.60
2023-03-26T10:32:23.908Z,21.60
2023-03-26T10:34:28.380Z,21.60
2023-03-26T10:36:34.430Z,21.60
2023-03-26T10:39:03.013Z,21.60
2023-03-26T10:41:08.015Z,21.60
2023-03-26T10:43:30.513Z,21.60
2023-03-26T10:45:55.135Z,21.60
2023-03-26T10:48:15.637Z,21.50
2023-03-26T10:50:23.343Z,21.50
2023-03-26T10:52:30.507Z,21.50
2023-03-26T10:54:41.157Z,21.50
2023-03-26T10:56:42.907Z,21.50
2023-03-26T10:58:48.520Z,21.50
2023-03-26T11:01:10.417Z,21.60
2023-03-26T11:03:30.923Z,21.50
2023-03-26T11:05:38.654Z,21.50
2023-03-26T11:08:00.010Z,21.50
2023-03-26T11:10:02.837Z,21.50
2023-03-26T11:12:26.693Z,21.50
2023-03-26T11:14:50.824Z,21.50
2023-03-26T11:17:14.767Z,21.50
2023-03-26T11:19:41.113Z,21.50
2023-03-26T11:21:42.930Z,21.50
2023-03-26T11:23:47.651Z,21.50
2023-03-26T11:26:09.536Z,21.50
2023-03-26T11:28:21.906Z,21.50
2023-03-26T11:30:36.220Z,21.50
2023-03-26T11:32:40.625Z,21.60
2023-03-26T11:34:57.529Z,21.50
2023-03-26T11:37:01.578Z,21.50
2023-03-26T11:39:05.628Z,21.50
2023-03-26T11:41:12.737Z,21.50
2023-03-26T11:43:30.805Z,21.50
2023-03-26T11:45:34.533Z,21.50
2023-03-26T11:47:42.659Z,21.50
2023-03-26T11:49:45.563Z,21.50
2023-03-26T11:51:47.825Z,21.50
2023-03-26T11:53:49.588Z,21.50
2023-03-26T11:55:58.020Z,21.50
2023-03-26T11:58:00.451Z,21.50
2023-03-26T12:00:07.351Z,21.50
2023-03-26T12:02:14.007Z,21.50
2023-03-26T12:04:16.815Z,21.60
2023-03-26T12:06:25.713Z,21.50
2023-03-26T12:08:33.842Z,21.50
2023-03-26T12:10:38.625Z,21.60
2023-03-26T12:12:45.985Z,21.50
2023-03-26T12:14:48.284Z,21.50
2023-03-26T12:17:07.229Z,21.60
2023-03-26T12:19:19.650Z,21.60
2023-03-26T12:21:21.447Z,21.60
2023-03-26T12:23:55.760Z,21.60
2023-03-26T12:26:04.970Z,21.60
2023-03-26T12:28:19.544Z,21.60
2023-03-26T12:30:22.682Z,21.60
2023-03-26T12:32:32.439Z,21.60
2023-03-26T12:34:41.564Z,21.60
2023-03-26T12:36:52.098Z,21.60
2023-03-26T12:39:16.279Z,21.50
2023-03-26T12:44:42.958Z,21.60
2023-03-26T12:44:54.713Z,21.60
2023-03-26T12:47:15.021Z,21.50
2023-03-26T12:48:24.825Z,21.50
2023-03-26T12:50:35.490Z,21.50
2023-03-26T12:52:56.322Z,21.60
2023-03-26T12:55:12.032Z,21.50
2023-03-26T12:57:14.318Z,21.50
2023-03-26T12:59:38.864Z,21.50
2023-03-26T13:02:15.901Z,21.50
2023-03-26T13:04:17.797Z,21.50
2023-03-26T13:06:59.066Z,21.50
2023-03-26T13:09:12.832Z,21.50
2023-03-26T13:11:17.294Z,21.50
2023-03-26T13:13:37.964Z,21.50
2023-03-26T13:15:45.514Z,21.50
2023-03-26T13:17:47.495Z,21.50
2023-03-26T13:19:53.950Z,21.50
2023-03-26T13:22:11.041Z,21.50
2023-03-26T13:24:19.788Z,21.50
2023-03-26T13:26:40.773Z,21.50
2023-03-26T13:29:01.350Z,21.50
2023-03-26T13:31:19.890Z,21.50
2023-03-26T13:33:21.697Z,21.50
2023-03-26T13:35:42.194Z,21.50
2023-03-26T13:37:44.032Z,21.50
2023-03-26T13:40:03.190Z,21.50
2023-03-26T13:42:26.780Z,21.50
2023-03-26T13:44:31.444Z,21.50
2023-03-26T13:46:53.365Z,21.50
2023-03-26T13:49:03.446Z,21.50
2023-03-26T13:51:09.826Z,21.50
2023-03-26T13:53:14.108Z,21.50
2023-03-26T13:55:28.205Z,21.50
2023-03-26T13:57:38.743Z,21.50
2023-03-26T13:59:44.056Z,21.50
2023-03-26T14:01:59.203Z,21.50
2023-03-26T14:04:01.086Z,21.50
2023-03-26T14:06:06.538Z,21.50
2023-03-26T14:08:23.539Z,21.50
2023-03-26T14:10:27.380Z,21.50
2023-03-26T14:12:37.181Z,21.50
2023-03-26T14:14:43.122Z,21.50
2023-03-26T14:16:53.848Z,21.50
2023-03-26T14:19:11.921Z,21.50
2023-03-26T14:21:16.588Z,21.50
2023-03-26T14:23:27.621Z,21.50
2023-03-26T14:26:01.825Z,21.50
2023-03-26T14:28:15.374Z,21.50
2023-03-26T14:30:17.137Z,21.50
2023-03-26T14:32:37.232Z,21.40
2023-03-26T14:34:51.528Z,21.40
2023-03-26T14:37:12.306Z,21.40
2023-03-26T14:39:31.342Z,21.40
2023-03-26T14:41:38.138Z,21.50
2023-03-26T14:43:52.555Z,21.50
2023-03-26T14:46:17.435Z,21.50
2023-03-26T14:48:43.607Z,21.60
2023-03-26T14:50:57.553Z,21.60
2023-03-26T14:53:01.597Z,21.70
2023-03-26T14:55:06.561Z,21.70
2023-03-26T14:57:27.291Z,21.70
2023-03-26T14:59:47.985Z,21.80
2023-03-26T15:01:49.814Z,21.80
2023-03-26T15:03:54.642Z,21.80
2023-03-26T15:06:06.499Z,21.80
2023-03-26T15:08:33.869Z,21.80
2023-03-26T15:10:55.451Z,21.80
2023-03-26T15:13:00.432Z,21.80
2023-03-26T15:15:08.317Z,21.70
2023-03-26T15:17:29.130Z,21.70
2023-03-26T15:19:37.048Z,21.70
2023-03-26T15:21:57.788Z,21.70
2023-03-26T15:24:18.387Z,21.70
2023-03-26T15:26:38.937Z,21.70
2023-03-26T15:28:40.741Z,21.70
2023-03-26T15:30:53.875Z,21.70
2023-03-26T15:32:58.709Z,21.70
2023-03-26T15:35:06.517Z,21.60
2023-03-26T15:37:23.766Z,21.60
2023-03-26T15:39:34.408Z,21.60
2023-03-26T15:41:48.612Z,21.60
2023-03-26T15:44:23.829Z,21.60
2023-03-26T15:46:36.286Z,21.60
2023-03-26T15:48:41.131Z,21.60
2023-03-26T15:50:45.915Z,21.60
2023-03-26T15:52:50.705Z,21.60
2023-03-26T15:55:01.642Z,21.50
2023-03-26T15:57:03.518Z,21.50
2023-03-26T15:59:13.533Z,21.50
2023-03-26T16:01:24.530Z,21.50
2023-03-26T16:03:28.618Z,21.50
2023-03-26T16:05:53.439Z,21.50
2023-03-26T16:08:13.791Z,21.50
2023-03-26T16:10:25.304Z,21.50
2023-03-26T16:12:28.857Z,21.50
2023-03-26T16:14:50.869Z,21.50
2023-03-26T16:16:58.993Z,21.50
2023-03-26T16:19:21.931Z,21.50
2023-03-26T16:21:33.038Z,21.50
2023-03-26T16:23:34.909Z,21.50
2023-03-26T16:25:54.223Z,21.50
2023-03-26T16:28:08.570Z,21.50
2023-03-26T16:30:13.515Z,21.50
2023-03-26T16:32:35.378Z,21.50
2023-03-26T16:34:37.211Z,21.50
2023-03-26T16:36:42.548Z,21.50
2023-03-26T16:38:47.328Z,21.50
2023-03-26T16:41:01.216Z,21.50
2023-03-26T16:43:09.311Z,21.50
2023-03-26T16:45:11.025Z,21.50
2023-03-26T16:47:31.430Z,21.50
2023-03-26T16:49:45.656Z,21.50
2023-03-26T16:51:50.585Z,21.50
2023-03-26T16:54:09.520Z,21.50
2023-03-26T16:56:14.471Z,21.50
2023-03-26T16:58:38.617Z,21.50
2023-03-26T17:00:59.300Z,21.50
2023-03-26T17:03:06.395Z,21.50
2023-03-26T17:05:17.197Z,21.40
2023-03-26T17:07:25.194Z,21.40
2023-03-26T17:09:29.820Z,21.40
2023-03-26T17:11:31.644Z,21.40
2023-03-26T17:13:52.131Z,21.40
2023-03-26T17:16:12.344Z,21.40
2023-03-26T17:18:27.803Z,21.40
2023-03-26T17:20:38.261Z,21.40
2023-03-26T17:22:50.268Z,21.40
2023-03-26T17:25:13.742Z,21.40
2023-03-26T17:27:37.997Z,21.40
2023-03-26T17:29:58.606Z,21.40
2023-03-26T17:32:10.008Z,21.40
2023-03-26T17:34:30.677Z,21.40
2023-03-26T17:36:42.702Z,21.40
2023-03-26T17:38:47.471Z,21.40
2023-03-26T17:40:49.237Z,21.40
2023-03-26T17:43:01.598Z,21.40
2023-03-26T17:45:08.388Z,21.40
2023-03-26T17:47:18.156Z,21.40
2023-03-26T17:49:25.367Z,21.40
2023-03-26T17:51:31.973Z,21.40
2023-03-26T17:53:35.486Z,21.40
2023-03-26T17:55:37.953Z,21.40
2023-03-26T17:57:41.583Z,21.40
2023-03-26T17:59:44.839Z,21.40
2023-03-26T18:01:46.865Z,21.40
2023-03-26T18:03:50.396Z,21.40
2023-03-26T18:05:54.093Z,21.40
2023-03-26T18:07:56.010Z,21.40
2023-03-26T18:10:16.234Z,21.40
2023-03-26T18:12:36.612Z,21.40
2023-03-26T18:14:56.991Z,21.40
2023-03-26T18:17:00.497Z,21.40
2023-03-26T18:19:04.932Z,21.40
2023-03-26T18:21:07.541Z,21.40
2023-03-26T18:23:10.832Z,21.40
2023-03-26T18:25:21.042Z,21.40
2023-03-26T18:27:22.968Z,21.40
2023-03-26T18:29:26.367Z,21.40
2023-03-26T18:31:28.173Z,21.40
2023-03-26T18:33:40.917Z,21.40
2023-03-26T18:35:44.502Z,21.40
2023-03-26T18:37:47.151Z,21.30
2023-03-26T18:39:57.278Z,21.30
2023-03-26T18:41:59.432Z,21.30
2023-03-26T18:44:02.247Z,21.30
2023-03-26T18:46:04.131Z,21.30
2023-03-26T18:48:07.265Z,21.30
2023-03-26T18:50:14.294Z,21.30
2023-03-26T18:52:17.994Z,21.30
2023-03-26T18:54:20.864Z,21.30
2023-03-26T18:56:31.582Z,21.30
2023-03-26T18:58:34.627Z,21.30
2023-03-26T19:00:36.463Z,21.30
2023-03-26T19:02:38.517Z,21.30
2023-03-26T19:04:41.684Z,21.30
2023-03-26T19:06:48.629Z,21.30
2023-03-26T19:08:50.745Z,21.30
2023-03-26T19:10:53.159Z,21.30
2023-03-26T19:12:55.753Z,21.30
2023-03-26T19:15:17.819Z,21.30
2023-03-26T19:17:19.661Z,21.30
2023-03-26T19:19:22.367Z,21.30
2023-03-26T19:21:25.094Z,21.30
2023-03-26T19:23:29.867Z,21.30
2023-03-26T19:25:35.572Z,21.30
2023-03-26T19:27:37.319Z,21.30
2023-03-26T19:29:39.793Z,21.30
2023-03-26T19:31:41.633Z,21.30
2023-03-26T19:33:44.003Z,21.30
2023-03-26T19:35:50.730Z,21.30
2023-03-26T19:37:53.220Z,21.30
2023-03-26T19:39:59.909Z,21.30
2023-03-26T19:42:02.064Z,21.30
2023-03-26T19:44:16.452Z,21.30
2023-03-26T19:46:21.050Z,21.30
2023-03-26T19:48:45.460Z,21.30
2023-03-26T19:50:53.442Z,21.30
2023-03-26T19:53:24.553Z,21.30
2023-03-26T19:55:26.463Z,21.30
2023-03-26T19:57:29.935Z,21.30
2023-03-26T19:59:31.804Z,21.30
2023-03-26T20:01:33.647Z,21.30
2023-03-26T20:03:40.266Z,21.20
2023-03-26T20:05:42.226Z,21.30
2023-03-26T20:07:44.038Z,21.20
2023-03-26T20:09:45.949Z,21.20
2023-03-26T20:11:47.705Z,21.30
2023-03-26T20:13:49.809Z,21.20
2023-03-26T20:16:06.097Z,21.20
2023-03-26T20:18:08.214Z,21.30
2023-03-26T20:20:10.747Z,21.30
2023-03-26T20:22:13.710Z,21.20
2023-03-26T20:24:16.599Z,21.20
2023-03-26T20:26:18.416Z,21.20
2023-03-26T20:28:20.650Z,21.20
2023-03-26T20:30:37.006Z,21.20
2023-03-26T20:32:39.952Z,21.30
2023-03-26T20:34:41.690Z,21.20
2023-03-26T20:36:43.736Z,21.30
2023-03-26T20:38:46.113Z,21.20
2023-03-26T20:40:48.147Z,21.20
2023-03-26T20:42:49.964Z,21.20
2023-03-26T20:44:51.790Z,21.20
2023-03-26T20:46:53.824Z,21.20
2023-03-26T20:48:56.464Z,21.20
2023-03-26T20:50:58.430Z,21.20
2023-03-26T20:53:00.201Z,21.20
2023-03-26T20:55:02.030Z,21.20
2023-03-26T20:57:03.913Z,21.20
2023-03-26T20:59:11.103Z,21.20
2023-03-26T21:01:13.866Z,21.20
2023-03-26T21:03:16.801Z,21.20
2023-03-26T21:05:19.228Z,21.20
2023-03-26T21:07:21.038Z,21.20
2023-03-26T21:09:22.989Z,21.20
2023-03-26T21:11:43.344Z,21.20
2023-03-26T21:13:47.289Z,21.20
2023-03-26T21:15:49.482Z,21.20
2023-03-26T21:17:51.425Z,21.20
2023-03-26T21:19:53.420Z,21.20
2023-03-26T21:21:59.479Z,21.20
2023-03-26T21:24:10.396Z,21.20
2023-03-26T21:26:16.320Z,21.20
2023-03-26T21:28:35.472Z,21.20
2023-03-26T21:30:43.621Z,21.20
2023-03-26T21:32:45.881Z,21.20
2023-03-26T21:34:55.685Z,21.20
2023-03-26T21:37:00.734Z,21.20
2023-03-26T21:39:02.707Z,21.20
2023-03-26T21:41:05.045Z,21.20
2023-03-26T21:43:07.103Z,21.20
2023-03-26T21:45:09.092Z,21.20
2023-03-26T21:47:11.108Z,21.20
2023-03-26T21:49:13.931Z,21.20
2023-03-26T21:51:15.885Z,21.20
2023-03-26T21:53:17.887Z,21.20
2023-03-26T21:55:20.857Z,21.20
2023-03-26T21:57:34.967Z,21.20
2023-03-26T21:59:45.493Z,21.20
2023-03-26T22:02:02.507Z,21.20
2023-03-26T22:04:08.081Z,21.20
2023-03-26T22:06:15.728Z,21.20
2023-03-26T22:08:26.637Z,21.20
2023-03-26T22:10:29.447Z,21.20
2023-03-26T22:12:31.248Z,21.20
2023-03-26T22:14:33.069Z,21.20
2023-03-26T22:16:34.903Z,21.20
2023-03-26T22:18:36.720Z,21.20
2023-03-26T22:20:38.518Z,21.20
2023-03-26T22:22:43.377Z,21.20
2023-03-26T22:24:45.161Z,21.20
2023-03-26T22:26:47.362Z,21.20
2023-03-26T22:28:49.213Z,21.20
2023-03-26T22:30:51.077Z,21.20
2023-03-26T22:32:53.181Z,21.20
2023-03-26T22:34:55.021Z,21.20
2023-03-26T22:36:56.872Z,21.20
2023-03-26T22:38:58.686Z,21.20
2023-03-26T22:41:00.482Z,21.20
2023-03-26T22:43:02.219Z,21.20
2023-03-26T22:45:04.501Z,21.20
2023-03-26T22:47:06.328Z,21.20
2023-03-26T22:49:08.147Z,21.20
2023-03-26T22:51:09.941Z,21.20
2023-03-26T22:53:11.733Z,21.20
2023-03-26T22:55:13.992Z,21.20
2023-03-26T22:57:30.377Z,21.10
2023-03-26T22:59:32.178Z,21.20
2023-03-26T23:01:34.025Z,21.10
2023-03-26T23:03:36.321Z,21.10
2023-03-26T23:05:38.157Z,21.10
2023-03-26T23:07:40.444Z,21.10
2023-03-26T23:09:42.216Z,21.10
2023-03-26T23:11:44.045Z,21.10
2023-03-26T23:13:46.206Z,21.10
2023-03-26T23:15:49.031Z,21.10
2023-03-26T23:17:54.714Z,21.10
2023-03-26T23:19:56.906Z,21.20
2023-03-26T23:21:58.683Z,21.10
2023-03-26T23:24:00.581Z,21.10
2023-03-26T23:26:04.013Z,21.10
2023-03-26T23:28:05.883Z,21.10
2023-03-26T23:30:08.019Z,21.10
2023-03-26T23:32:24.533Z,21.10
2023-03-26T23:34:26.808Z,21.10
2023-03-26T23:36:28.591Z,21.10
2023-03-26T23:38:44.029Z,21.10
2023-03-26T23:40:57.264Z,21.10
2023-03-26T23:42:59.529Z,21.10
2023-03-26T23:45:01.299Z,21.10
2023-03-26T23:47:03.121Z,21.10
2023-03-26T23:49:05.000Z,21.10
2023-03-26T23:51:06.970Z,21.10
2023-03-26T23:53:08.802Z,21.10
2023-03-26T23:55:10.655Z,21.10
2023-03-26T23:57:12.800Z,21.10
2023-03-26T23:59:14.752Z,21.10
